Briefing drone pour Portes-les-valence

Rechercher une autre localisation

Conditions de vol :


Nous sommes le : Dimanche 25 février 2024
Il est 08:18 UTC (09:18 LT)

Lever de soleil : 05:59 UTC (06:59 LT)
Coucher de soleil : 17:48 UTC (18:48 LT)

Météo

L'essentiel des conditions de vol

VIGILANCE MÉTÉO FRANCE - Drôme (26)
Pas de vigilances particulieres
CARTES DES FRONTS
METAR de LFLU
LFLU 250800Z AUTO 19012KT CAVOK 05/01 Q1009

Date d'émission: 25/02/2024
Heure d'émission: 08:00 UTC
Vent: 190° pour 12 KT (22 km/h)
Visibilité horizontale: > 10 km
Plafond : Plafond et visibilité OK (CAVOK)
Température: 5 °C
Point de rosée: 1 °C
Humidité: 75%
Pression (QNH): 1009 hPa
Prévision 24h pour Valence (5 km)
Vent : 215° pour 3 KT (9 km/h)
Temperature Maxi: 6 °C
Temperature Min: 6 °C
Humidité : 94%
Condition : Légère pluie


WEBCAM POUR PORTES-LES-VALENCE

Réglementation

Voler en sécurité

CARTES AERONAUTIQUE 1/500.000
CARTE AZBA (Reseau basse altitude)
CARTES VAC (LFLU)
SUP AIP




Chargement des AIP...
NOTAM (PORTES-LES-VALENCE + Terrain à proximité / FIR )




Chargement des NOTAMS...
CONTACT PREFECTURE 26
Drôme (26) : [email protected]


Avertissement : Les données mises à disposition sont indicatives. Oxygène Drone ne pourra être tenu responsable de dégâts causés aux biens et aux personnes.